sensor_id;sensor_type;location;lat;lon;timestamp;P1;durP1;ratioP1;P2;durP2;ratioP2
9224;SDS011;4647;48.072;11.616;2022-08-21T00:02:01;5.10;;;3.30;;
9224;SDS011;4647;48.072;11.616;2022-08-21T00:04:28;4.90;;;3.10;;
9224;SDS011;4647;48.072;11.616;2022-08-21T00:06:57;6.40;;;3.60;;
9224;SDS011;4647;48.072;11.616;2022-08-21T00:09:25;8.07;;;3.30;;
9224;SDS011;4647;48.072;11.616;2022-08-21T00:11:52;3.90;;;2.93;;
9224;SDS011;4647;48.072;11.616;2022-08-21T00:14:19;4.67;;;2.80;;
9224;SDS011;4647;48.072;11.616;2022-08-21T00:16:46;3.73;;;3.20;;
9224;SDS011;4647;48.072;11.616;2022-08-21T00:19:13;4.67;;;3.10;;
9224;SDS011;4647;48.072;11.616;2022-08-21T00:21:40;4.07;;;3.33;;
9224;SDS011;4647;48.072;11.616;2022-08-21T00:24:09;3.17;;;2.87;;
9224;SDS011;4647;48.072;11.616;2022-08-21T00:26:36;4.17;;;2.87;;
9224;SDS011;4647;48.072;11.616;2022-08-21T00:29:03;3.57;;;3.20;;
9224;SDS011;4647;48.072;11.616;2022-08-21T00:31:30;3.00;;;2.70;;
9224;SDS011;4647;48.072;11.616;2022-08-21T00:33:57;3.20;;;2.90;;
9224;SDS011;4647;48.072;11.616;2022-08-21T00:36:24;5.53;;;2.90;;
9224;SDS011;4647;48.072;11.616;2022-08-21T00:38:51;5.20;;;2.90;;
9224;SDS011;4647;48.072;11.616;2022-08-21T00:41:20;3.57;;;2.93;;
9224;SDS011;4647;48.072;11.616;2022-08-21T00:43:48;3.20;;;2.60;;
9224;SDS011;4647;48.072;11.616;2022-08-21T00:46:16;5.53;;;2.57;;
9224;SDS011;4647;48.072;11.616;2022-08-21T00:48:43;3.17;;;2.60;;
9224;SDS011;4647;48.072;11.616;2022-08-21T00:51:14;3.23;;;2.83;;
9224;SDS011;4647;48.072;11.616;2022-08-21T00:53:47;4.17;;;2.20;;
9224;SDS011;4647;48.072;11.616;2022-08-21T00:56:16;3.17;;;2.33;;
9224;SDS011;4647;48.072;11.616;2022-08-21T00:58:46;2.40;;;2.20;;
9224;SDS011;4647;48.072;11.616;2022-08-21T01:01:14;3.00;;;2.70;;
9224;SDS011;4647;48.072;11.616;2022-08-21T01:03:41;2.67;;;2.47;;
9224;SDS011;4647;48.072;11.616;2022-08-21T01:06:08;3.20;;;2.50;;
9224;SDS011;4647;48.072;11.616;2022-08-21T01:08:35;2.57;;;2.37;;
9224;SDS011;4647;48.072;11.616;2022-08-21T01:11:03;2.33;;;2.13;;
9224;SDS011;4647;48.072;11.616;2022-08-21T01:13:31;2.50;;;2.30;;
9224;SDS011;4647;48.072;11.616;2022-08-21T01:16:05;2.90;;;2.60;;
9224;SDS011;4647;48.072;11.616;2022-08-21T01:18:35;2.40;;;2.20;;
9224;SDS011;4647;48.072;11.616;2022-08-21T01:21:05;4.70;;;2.73;;
9224;SDS011;4647;48.072;11.616;2022-08-21T01:23:34;2.30;;;2.07;;
9224;SDS011;4647;48.072;11.616;2022-08-21T01:26:03;2.53;;;2.33;;
9224;SDS011;4647;48.072;11.616;2022-08-21T01:28:31;3.60;;;2.10;;
9224;SDS011;4647;48.072;11.616;2022-08-21T01:31:02;3.83;;;2.40;;
9224;SDS011;4647;48.072;11.616;2022-08-21T01:33:32;2.90;;;2.20;;
9224;SDS011;4647;48.072;11.616;2022-08-21T01:35:59;3.90;;;2.27;;
9224;SDS011;4647;48.072;11.616;2022-08-21T01:38:27;2.87;;;2.47;;
9224;SDS011;4647;48.072;11.616;2022-08-21T01:40:55;2.80;;;2.50;;
9224;SDS011;4647;48.072;11.616;2022-08-21T01:43:22;2.50;;;2.30;;
9224;SDS011;4647;48.072;11.616;2022-08-21T01:45:48;3.10;;;2.20;;
9224;SDS011;4647;48.072;11.616;2022-08-21T01:48:16;2.83;;;2.53;;
9224;SDS011;4647;48.072;11.616;2022-08-21T01:50:43;2.60;;;2.40;;
9224;SDS011;4647;48.072;11.616;2022-08-21T01:53:10;3.10;;;2.40;;
9224;SDS011;4647;48.072;11.616;2022-08-21T01:55:39;2.57;;;2.37;;
9224;SDS011;4647;48.072;11.616;2022-08-21T01:58:07;4.73;;;2.73;;
9224;SDS011;4647;48.072;11.616;2022-08-21T02:00:34;3.03;;;2.23;;
9224;SDS011;4647;48.072;11.616;2022-08-21T02:03:01;2.50;;;2.30;;
9224;SDS011;4647;48.072;11.616;2022-08-21T02:05:28;2.80;;;2.47;;
9224;SDS011;4647;48.072;11.616;2022-08-21T02:07:55;3.83;;;1.97;;
9224;SDS011;4647;48.072;11.616;2022-08-21T02:10:24;3.77;;;2.50;;
9224;SDS011;4647;48.072;11.616;2022-08-21T02:12:54;6.07;;;2.70;;
9224;SDS011;4647;48.072;11.616;2022-08-21T02:15:22;3.13;;;2.30;;
9224;SDS011;4647;48.072;11.616;2022-08-21T02:17:50;2.40;;;2.20;;
9224;SDS011;4647;48.072;11.616;2022-08-21T02:20:20;3.23;;;2.27;;
9224;SDS011;4647;48.072;11.616;2022-08-21T02:22:50;4.37;;;2.70;;
9224;SDS011;4647;48.072;11.616;2022-08-21T02:25:17;2.53;;;2.33;;
9224;SDS011;4647;48.072;11.616;2022-08-21T02:27:45;3.37;;;2.30;;
9224;SDS011;4647;48.072;11.616;2022-08-21T02:30:15;3.10;;;2.30;;
9224;SDS011;4647;48.072;11.616;2022-08-21T02:32:45;3.23;;;2.40;;
9224;SDS011;4647;48.072;11.616;2022-08-21T02:35:13;5.77;;;2.40;;
9224;SDS011;4647;48.072;11.616;2022-08-21T02:37:44;3.10;;;2.10;;
9224;SDS011;4647;48.072;11.616;2022-08-21T02:40:15;2.97;;;2.40;;
9224;SDS011;4647;48.072;11.616;2022-08-21T02:42:44;2.93;;;2.30;;
9224;SDS011;4647;48.072;11.616;2022-08-21T02:45:12;2.67;;;2.30;;
9224;SDS011;4647;48.072;11.616;2022-08-21T02:47:42;3.33;;;2.37;;
9224;SDS011;4647;48.072;11.616;2022-08-21T02:50:16;2.50;;;2.30;;
9224;SDS011;4647;48.072;11.616;2022-08-21T02:52:44;4.43;;;2.10;;
9224;SDS011;4647;48.072;11.616;2022-08-21T02:55:11;2.30;;;2.07;;
9224;SDS011;4647;48.072;11.616;2022-08-21T02:57:38;3.03;;;2.33;;
9224;SDS011;4647;48.072;11.616;2022-08-21T03:00:05;2.60;;;2.40;;
9224;SDS011;4647;48.072;11.616;2022-08-21T03:02:34;3.20;;;2.67;;
9224;SDS011;4647;48.072;11.616;2022-08-21T03:05:02;4.33;;;2.30;;
9224;SDS011;4647;48.072;11.616;2022-08-21T03:07:30;2.33;;;2.13;;
9224;SDS011;4647;48.072;11.616;2022-08-21T03:09:57;3.03;;;2.30;;
9224;SDS011;4647;48.072;11.616;2022-08-21T03:12:24;2.97;;;2.60;;
9224;SDS011;4647;48.072;11.616;2022-08-21T03:14:51;3.57;;;2.63;;
9224;SDS011;4647;48.072;11.616;2022-08-21T03:17:18;3.10;;;2.60;;
9224;SDS011;4647;48.072;11.616;2022-08-21T03:19:45;2.60;;;2.40;;
9224;SDS011;4647;48.072;11.616;2022-08-21T03:22:13;2.53;;;2.33;;
9224;SDS011;4647;48.072;11.616;2022-08-21T03:24:40;2.77;;;2.50;;
9224;SDS011;4647;48.072;11.616;2022-08-21T03:27:07;3.00;;;2.57;;
9224;SDS011;4647;48.072;11.616;2022-08-21T03:29:33;2.67;;;2.27;;
9224;SDS011;4647;48.072;11.616;2022-08-21T03:32:01;2.90;;;2.70;;
9224;SDS011;4647;48.072;11.616;2022-08-21T03:34:28;2.60;;;2.40;;
9224;SDS011;4647;48.072;11.616;2022-08-21T03:36:55;3.20;;;2.80;;
9224;SDS011;4647;48.072;11.616;2022-08-21T03:39:23;2.43;;;2.20;;
9224;SDS011;4647;48.072;11.616;2022-08-21T03:41:50;3.80;;;2.80;;
9224;SDS011;4647;48.072;11.616;2022-08-21T03:44:17;3.10;;;2.80;;
9224;SDS011;4647;48.072;11.616;2022-08-21T03:46:44;5.20;;;2.73;;
9224;SDS011;4647;48.072;11.616;2022-08-21T03:49:11;3.07;;;2.77;;
9224;SDS011;4647;48.072;11.616;2022-08-21T03:51:38;3.50;;;2.67;;
9224;SDS011;4647;48.072;11.616;2022-08-21T03:54:05;2.90;;;2.70;;
9224;SDS011;4647;48.072;11.616;2022-08-21T03:56:33;2.70;;;2.50;;
9224;SDS011;4647;48.072;11.616;2022-08-21T03:59:00;2.80;;;2.60;;
9224;SDS011;4647;48.072;11.616;2022-08-21T04:01:28;2.97;;;2.73;;
9224;SDS011;4647;48.072;11.616;2022-08-21T04:03:55;3.13;;;2.73;;
9224;SDS011;4647;48.072;11.616;2022-08-21T04:06:22;2.80;;;2.40;;
9224;SDS011;4647;48.072;11.616;2022-08-21T04:08:50;3.83;;;2.57;;
9224;SDS011;4647;48.072;11.616;2022-08-21T04:11:17;4.07;;;2.47;;
9224;SDS011;4647;48.072;11.616;2022-08-21T04:13:45;2.50;;;2.30;;
9224;SDS011;4647;48.072;11.616;2022-08-21T04:16:13;2.87;;;2.57;;
9224;SDS011;4647;48.072;11.616;2022-08-21T04:18:40;2.90;;;2.70;;
9224;SDS011;4647;48.072;11.616;2022-08-21T04:21:07;4.20;;;2.60;;
9224;SDS011;4647;48.072;11.616;2022-08-21T04:23:37;2.70;;;2.50;;
9224;SDS011;4647;48.072;11.616;2022-08-21T04:28:34;2.57;;;2.37;;
9224;SDS011;4647;48.072;11.616;2022-08-21T04:31:02;3.33;;;2.63;;
9224;SDS011;4647;48.072;11.616;2022-08-21T04:33:29;3.50;;;2.50;;
9224;SDS011;4647;48.072;11.616;2022-08-21T04:35:56;4.97;;;2.53;;
9224;SDS011;4647;48.072;11.616;2022-08-21T04:38:23;3.80;;;2.20;;
9224;SDS011;4647;48.072;11.616;2022-08-21T04:40:51;3.20;;;2.30;;
9224;SDS011;4647;48.072;11.616;2022-08-21T04:43:18;2.93;;;2.23;;
9224;SDS011;4647;48.072;11.616;2022-08-21T04:45:48;3.30;;;2.23;;
9224;SDS011;4647;48.072;11.616;2022-08-21T04:48:18;2.50;;;2.07;;
9224;SDS011;4647;48.072;11.616;2022-08-21T04:50:48;2.40;;;2.17;;
9224;SDS011;4647;48.072;11.616;2022-08-21T04:53:20;3.40;;;2.30;;
9224;SDS011;4647;48.072;11.616;2022-08-21T04:55:52;4.17;;;2.37;;
9224;SDS011;4647;48.072;11.616;2022-08-21T04:58:23;2.60;;;2.17;;
9224;SDS011;4647;48.072;11.616;2022-08-21T05:00:54;2.50;;;2.30;;
9224;SDS011;4647;48.072;11.616;2022-08-21T05:03:25;2.50;;;2.30;;
9224;SDS011;4647;48.072;11.616;2022-08-21T05:05:52;2.20;;;2.00;;
9224;SDS011;4647;48.072;11.616;2022-08-21T05:08:20;3.33;;;2.10;;
9224;SDS011;4647;48.072;11.616;2022-08-21T05:10:50;4.23;;;2.10;;
9224;SDS011;4647;48.072;11.616;2022-08-21T05:13:17;1.80;;;1.70;;
9224;SDS011;4647;48.072;11.616;2022-08-21T05:15:44;2.30;;;2.10;;
9224;SDS011;4647;48.072;11.616;2022-08-21T05:18:11;3.57;;;2.10;;
9224;SDS011;4647;48.072;11.616;2022-08-21T05:20:40;1.90;;;1.53;;
9224;SDS011;4647;48.072;11.616;2022-08-21T05:23:10;2.20;;;2.00;;
9224;SDS011;4647;48.072;11.616;2022-08-21T05:25:38;4.53;;;2.00;;
9224;SDS011;4647;48.072;11.616;2022-08-21T05:28:05;1.70;;;1.60;;
9224;SDS011;4647;48.072;11.616;2022-08-21T05:30:32;5.20;;;1.87;;
9224;SDS011;4647;48.072;11.616;2022-08-21T05:33:00;1.70;;;1.60;;
9224;SDS011;4647;48.072;11.616;2022-08-21T05:35:32;1.70;;;1.60;;
9224;SDS011;4647;48.072;11.616;2022-08-21T05:38:01;3.93;;;2.13;;
9224;SDS011;4647;48.072;11.616;2022-08-21T05:40:28;2.60;;;1.90;;
9224;SDS011;4647;48.072;11.616;2022-08-21T05:42:55;6.13;;;1.80;;
9224;SDS011;4647;48.072;11.616;2022-08-21T05:45:26;2.10;;;1.87;;
9224;SDS011;4647;48.072;11.616;2022-08-21T05:47:54;3.03;;;2.20;;
9224;SDS011;4647;48.072;11.616;2022-08-21T05:50:21;2.63;;;2.20;;
9224;SDS011;4647;48.072;11.616;2022-08-21T05:52:48;3.37;;;1.70;;
9224;SDS011;4647;48.072;11.616;2022-08-21T05:55:17;4.53;;;1.77;;
9224;SDS011;4647;48.072;11.616;2022-08-21T05:57:44;3.30;;;1.87;;
9224;SDS011;4647;48.072;11.616;2022-08-21T06:00:11;3.07;;;1.90;;
9224;SDS011;4647;48.072;11.616;2022-08-21T06:02:39;2.97;;;2.10;;
9224;SDS011;4647;48.072;11.616;2022-08-21T06:05:06;2.43;;;1.80;;
9224;SDS011;4647;48.072;11.616;2022-08-21T06:07:33;2.73;;;2.00;;
9224;SDS011;4647;48.072;11.616;2022-08-21T06:10:00;2.10;;;1.90;;
9224;SDS011;4647;48.072;11.616;2022-08-21T06:12:29;3.17;;;2.03;;
9224;SDS011;4647;48.072;11.616;2022-08-21T06:14:56;3.13;;;1.83;;
9224;SDS011;4647;48.072;11.616;2022-08-21T06:17:22;3.17;;;1.87;;
9224;SDS011;4647;48.072;11.616;2022-08-21T06:19:50;2.10;;;1.90;;
9224;SDS011;4647;48.072;11.616;2022-08-21T06:22:17;2.50;;;1.77;;
9224;SDS011;4647;48.072;11.616;2022-08-21T06:24:44;3.83;;;1.80;;
9224;SDS011;4647;48.072;11.616;2022-08-21T06:27:11;1.93;;;1.80;;
9224;SDS011;4647;48.072;11.616;2022-08-21T06:29:39;3.13;;;1.73;;
9224;SDS011;4647;48.072;11.616;2022-08-21T06:32:10;1.87;;;1.60;;
9224;SDS011;4647;48.072;11.616;2022-08-21T06:34:37;2.00;;;1.80;;
9224;SDS011;4647;48.072;11.616;2022-08-21T06:37:05;1.93;;;1.63;;
9224;SDS011;4647;48.072;11.616;2022-08-21T06:39:32;1.90;;;1.70;;
9224;SDS011;4647;48.072;11.616;2022-08-21T06:41:59;6.13;;;1.90;;
9224;SDS011;4647;48.072;11.616;2022-08-21T06:44:26;3.30;;;1.60;;
9224;SDS011;4647;48.072;11.616;2022-08-21T06:46:55;11.20;;;2.00;;
9224;SDS011;4647;48.072;11.616;2022-08-21T06:49:22;2.53;;;1.50;;
9224;SDS011;4647;48.072;11.616;2022-08-21T06:51:49;1.87;;;1.60;;
9224;SDS011;4647;48.072;11.616;2022-08-21T06:54:16;2.37;;;1.60;;
9224;SDS011;4647;48.072;11.616;2022-08-21T06:56:43;4.43;;;2.00;;
9224;SDS011;4647;48.072;11.616;2022-08-21T06:59:09;1.90;;;1.60;;
9224;SDS011;4647;48.072;11.616;2022-08-21T07:01:36;3.73;;;1.93;;
9224;SDS011;4647;48.072;11.616;2022-08-21T07:04:05;2.80;;;1.60;;
9224;SDS011;4647;48.072;11.616;2022-08-21T07:06:32;3.43;;;1.83;;
9224;SDS011;4647;48.072;11.616;2022-08-21T07:08:59;5.00;;;2.00;;
9224;SDS011;4647;48.072;11.616;2022-08-21T07:11:27;2.27;;;1.53;;
9224;SDS011;4647;48.072;11.616;2022-08-21T07:13:54;2.57;;;1.63;;
9224;SDS011;4647;48.072;11.616;2022-08-21T07:16:21;4.43;;;1.90;;
9224;SDS011;4647;48.072;11.616;2022-08-21T07:18:49;2.47;;;1.87;;
9224;SDS011;4647;48.072;11.616;2022-08-21T07:21:17;5.43;;;2.00;;
9224;SDS011;4647;48.072;11.616;2022-08-21T07:23:45;3.57;;;2.07;;
9224;SDS011;4647;48.072;11.616;2022-08-21T07:26:15;4.40;;;2.00;;
9224;SDS011;4647;48.072;11.616;2022-08-21T07:28:43;3.33;;;2.07;;
9224;SDS011;4647;48.072;11.616;2022-08-21T07:31:10;3.07;;;2.10;;
9224;SDS011;4647;48.072;11.616;2022-08-21T07:33:41;4.47;;;2.13;;
9224;SDS011;4647;48.072;11.616;2022-08-21T07:36:09;3.00;;;2.20;;
9224;SDS011;4647;48.072;11.616;2022-08-21T07:38:38;3.13;;;2.20;;
9224;SDS011;4647;48.072;11.616;2022-08-21T07:41:07;12.07;;;3.97;;
9224;SDS011;4647;48.072;11.616;2022-08-21T07:43:41;5.73;;;2.30;;
9224;SDS011;4647;48.072;11.616;2022-08-21T07:46:09;6.40;;;2.13;;
9224;SDS011;4647;48.072;11.616;2022-08-21T07:48:36;3.00;;;2.27;;
9224;SDS011;4647;48.072;11.616;2022-08-21T07:51:05;3.63;;;2.10;;
9224;SDS011;4647;48.072;11.616;2022-08-21T07:53:34;2.67;;;2.27;;
9224;SDS011;4647;48.072;11.616;2022-08-21T07:56:03;3.60;;;2.20;;
9224;SDS011;4647;48.072;11.616;2022-08-21T07:58:30;3.27;;;2.33;;
9224;SDS011;4647;48.072;11.616;2022-08-21T08:00:58;3.73;;;1.93;;
9224;SDS011;4647;48.072;11.616;2022-08-21T08:03:25;4.27;;;2.70;;
9224;SDS011;4647;48.072;11.616;2022-08-21T08:05:52;7.60;;;2.80;;
9224;SDS011;4647;48.072;11.616;2022-08-21T08:08:19;4.93;;;2.27;;
9224;SDS011;4647;48.072;11.616;2022-08-21T08:10:46;4.00;;;2.83;;
9224;SDS011;4647;48.072;11.616;2022-08-21T08:13:17;2.57;;;2.37;;
9224;SDS011;4647;48.072;11.616;2022-08-21T08:15:44;2.60;;;2.30;;
9224;SDS011;4647;48.072;11.616;2022-08-21T08:18:11;3.13;;;2.13;;
9224;SDS011;4647;48.072;11.616;2022-08-21T08:20:38;5.13;;;2.40;;
9224;SDS011;4647;48.072;11.616;2022-08-21T08:23:06;3.57;;;2.70;;
9224;SDS011;4647;48.072;11.616;2022-08-21T08:25:33;3.30;;;2.30;;
9224;SDS011;4647;48.072;11.616;2022-08-21T08:28:00;2.83;;;2.50;;
9224;SDS011;4647;48.072;11.616;2022-08-21T08:30:28;2.83;;;2.37;;
9224;SDS011;4647;48.072;11.616;2022-08-21T08:32:55;4.00;;;2.90;;
9224;SDS011;4647;48.072;11.616;2022-08-21T08:35:23;4.87;;;2.70;;
9224;SDS011;4647;48.072;11.616;2022-08-21T08:37:50;4.20;;;2.80;;
9224;SDS011;4647;48.072;11.616;2022-08-21T08:40:18;4.23;;;2.97;;
9224;SDS011;4647;48.072;11.616;2022-08-21T08:42:51;4.57;;;3.10;;
9224;SDS011;4647;48.072;11.616;2022-08-21T08:45:19;3.30;;;3.00;;
9224;SDS011;4647;48.072;11.616;2022-08-21T08:47:51;3.53;;;2.70;;
9224;SDS011;4647;48.072;11.616;2022-08-21T08:50:24;4.10;;;2.57;;
9224;SDS011;4647;48.072;11.616;2022-08-21T08:52:54;5.30;;;2.60;;
9224;SDS011;4647;48.072;11.616;2022-08-21T08:55:26;4.37;;;3.13;;
9224;SDS011;4647;48.072;11.616;2022-08-21T08:57:58;3.47;;;2.93;;
9224;SDS011;4647;48.072;11.616;2022-08-21T09:00:27;3.30;;;2.90;;
9224;SDS011;4647;48.072;11.616;2022-08-21T09:02:59;5.97;;;2.80;;
9224;SDS011;4647;48.072;11.616;2022-08-21T09:05:28;3.20;;;2.90;;
9224;SDS011;4647;48.072;11.616;2022-08-21T09:08:11;3.53;;;2.70;;
9224;SDS011;4647;48.072;11.616;2022-08-21T09:10:57;2.60;;;2.33;;
9224;SDS011;4647;48.072;11.616;2022-08-21T09:13:31;5.77;;;2.60;;
9224;SDS011;4647;48.072;11.616;2022-08-21T09:16:13;3.13;;;2.60;;
9224;SDS011;4647;48.072;11.616;2022-08-21T09:18:51;2.67;;;2.47;;
9224;SDS011;4647;48.072;11.616;2022-08-21T09:21:25;4.53;;;2.80;;
9224;SDS011;4647;48.072;11.616;2022-08-21T09:24:07;3.20;;;2.73;;
9224;SDS011;4647;48.072;11.616;2022-08-21T09:26:47;3.87;;;2.93;;
9224;SDS011;4647;48.072;11.616;2022-08-21T09:29:19;4.37;;;3.13;;
9224;SDS011;4647;48.072;11.616;2022-08-21T09:31:50;5.20;;;3.27;;
9224;SDS011;4647;48.072;11.616;2022-08-21T09:34:25;6.20;;;3.63;;
9224;SDS011;4647;48.072;11.616;2022-08-21T09:36:54;3.60;;;2.90;;
9224;SDS011;4647;48.072;11.616;2022-08-21T09:39:23;3.70;;;3.40;;
9224;SDS011;4647;48.072;11.616;2022-08-21T09:41:57;3.40;;;2.87;;
9224;SDS011;4647;48.072;11.616;2022-08-21T09:44:25;3.47;;;3.10;;
9224;SDS011;4647;48.072;11.616;2022-08-21T09:46:53;4.47;;;2.87;;
9224;SDS011;4647;48.072;11.616;2022-08-21T09:49:28;3.60;;;2.80;;
9224;SDS011;4647;48.072;11.616;2022-08-21T09:51:57;5.63;;;3.43;;
9224;SDS011;4647;48.072;11.616;2022-08-21T09:54:26;3.83;;;3.10;;
9224;SDS011;4647;48.072;11.616;2022-08-21T09:56:58;5.93;;;3.20;;
9224;SDS011;4647;48.072;11.616;2022-08-21T09:59:44;5.53;;;3.77;;
9224;SDS011;4647;48.072;11.616;2022-08-21T10:02:21;7.37;;;3.03;;
9224;SDS011;4647;48.072;11.616;2022-08-21T10:04:53;5.43;;;3.03;;
9224;SDS011;4647;48.072;11.616;2022-08-21T10:07:21;5.33;;;3.00;;
9224;SDS011;4647;48.072;11.616;2022-08-21T10:09:58;4.03;;;3.00;;
9224;SDS011;4647;48.072;11.616;2022-08-21T10:12:31;2.97;;;2.70;;
9224;SDS011;4647;48.072;11.616;2022-08-21T10:15:11;3.17;;;2.93;;
9224;SDS011;4647;48.072;11.616;2022-08-21T10:17:47;4.10;;;3.00;;
9224;SDS011;4647;48.072;11.616;2022-08-21T10:20:28;5.43;;;3.00;;
9224;SDS011;4647;48.072;11.616;2022-08-21T10:23:04;3.77;;;2.60;;
9224;SDS011;4647;48.072;11.616;2022-08-21T10:25:44;5.27;;;3.07;;
9224;SDS011;4647;48.072;11.616;2022-08-21T10:28:16;7.43;;;2.67;;
9224;SDS011;4647;48.072;11.616;2022-08-21T10:30:49;3.60;;;2.50;;
9224;SDS011;4647;48.072;11.616;2022-08-21T10:33:26;3.80;;;2.37;;
9224;SDS011;4647;48.072;11.616;2022-08-21T10:36:05;4.50;;;2.70;;
9224;SDS011;4647;48.072;11.616;2022-08-21T10:38:49;4.53;;;2.60;;
9224;SDS011;4647;48.072;11.616;2022-08-21T10:41:28;3.73;;;2.80;;
9224;SDS011;4647;48.072;11.616;2022-08-21T10:44:08;2.97;;;2.60;;
9224;SDS011;4647;48.072;11.616;2022-08-21T10:46:48;3.00;;;2.27;;
9224;SDS011;4647;48.072;11.616;2022-08-21T10:49:22;3.33;;;2.27;;
9224;SDS011;4647;48.072;11.616;2022-08-21T10:52:04;3.23;;;2.40;;
9224;SDS011;4647;48.072;11.616;2022-08-21T10:54:49;4.03;;;2.40;;
9224;SDS011;4647;48.072;11.616;2022-08-21T10:57:19;2.80;;;2.10;;
9224;SDS011;4647;48.072;11.616;2022-08-21T10:59:57;3.20;;;2.90;;
9224;SDS011;4647;48.072;11.616;2022-08-21T11:02:32;3.07;;;2.50;;
9224;SDS011;4647;48.072;11.616;2022-08-21T11:05:05;2.30;;;2.07;;
9224;SDS011;4647;48.072;11.616;2022-08-21T11:07:39;3.40;;;2.67;;
9224;SDS011;4647;48.072;11.616;2022-08-21T11:10:13;4.20;;;2.40;;
9224;SDS011;4647;48.072;11.616;2022-08-21T11:12:44;3.17;;;2.63;;
9224;SDS011;4647;48.072;11.616;2022-08-21T11:15:22;3.43;;;3.03;;
9224;SDS011;4647;48.072;11.616;2022-08-21T11:17:57;2.73;;;2.53;;
9224;SDS011;4647;48.072;11.616;2022-08-21T11:20:32;2.80;;;2.60;;
9224;SDS011;4647;48.072;11.616;2022-08-21T11:23:07;3.00;;;2.70;;
9224;SDS011;4647;48.072;11.616;2022-08-21T11:25:41;3.23;;;2.57;;
9224;SDS011;4647;48.072;11.616;2022-08-21T11:28:14;2.57;;;2.33;;
9224;SDS011;4647;48.072;11.616;2022-08-21T11:30:48;3.73;;;2.83;;
9224;SDS011;4647;48.072;11.616;2022-08-21T11:33:29;2.50;;;2.30;;
9224;SDS011;4647;48.072;11.616;2022-08-21T11:36:12;5.80;;;3.00;;
9224;SDS011;4647;48.072;11.616;2022-08-21T11:38:48;3.43;;;2.60;;
9224;SDS011;4647;48.072;11.616;2022-08-21T11:41:25;8.00;;;2.30;;
9224;SDS011;4647;48.072;11.616;2022-08-21T11:43:58;2.50;;;2.27;;
9224;SDS011;4647;48.072;11.616;2022-08-21T11:46:35;4.40;;;2.43;;
9224;SDS011;4647;48.072;11.616;2022-08-21T11:49:15;4.27;;;2.47;;
9224;SDS011;4647;48.072;11.616;2022-08-21T11:51:50;3.30;;;2.43;;
9224;SDS011;4647;48.072;11.616;2022-08-21T11:54:31;2.47;;;2.17;;
9224;SDS011;4647;48.072;11.616;2022-08-21T11:57:03;4.67;;;2.30;;
9224;SDS011;4647;48.072;11.616;2022-08-21T11:59:35;4.17;;;2.50;;
9224;SDS011;4647;48.072;11.616;2022-08-21T12:02:06;4.03;;;2.67;;
9224;SDS011;4647;48.072;11.616;2022-08-21T12:04:42;3.43;;;2.67;;
9224;SDS011;4647;48.072;11.616;2022-08-21T12:07:12;7.67;;;2.63;;
9224;SDS011;4647;48.072;11.616;2022-08-21T12:09:50;3.57;;;2.40;;
9224;SDS011;4647;48.072;11.616;2022-08-21T12:12:23;3.53;;;2.60;;
9224;SDS011;4647;48.072;11.616;2022-08-21T12:15:03;3.23;;;2.87;;
9224;SDS011;4647;48.072;11.616;2022-08-21T12:17:40;3.27;;;2.50;;
9224;SDS011;4647;48.072;11.616;2022-08-21T12:20:22;3.00;;;2.63;;
9224;SDS011;4647;48.072;11.616;2022-08-21T12:23:24;3.17;;;2.47;;
9224;SDS011;4647;48.072;11.616;2022-08-21T12:26:03;2.70;;;2.50;;
9224;SDS011;4647;48.072;11.616;2022-08-21T12:28:45;6.63;;;2.17;;
9224;SDS011;4647;48.072;11.616;2022-08-21T12:31:23;4.10;;;2.23;;
9224;SDS011;4647;48.072;11.616;2022-08-21T12:33:53;3.50;;;2.20;;
9224;SDS011;4647;48.072;11.616;2022-08-21T12:36:24;2.53;;;2.13;;
9224;SDS011;4647;48.072;11.616;2022-08-21T12:39:01;3.00;;;2.23;;
9224;SDS011;4647;48.072;11.616;2022-08-21T12:41:34;4.10;;;2.20;;
9224;SDS011;4647;48.072;11.616;2022-08-21T12:44:08;5.40;;;2.13;;
9224;SDS011;4647;48.072;11.616;2022-08-21T12:46:39;4.30;;;2.30;;
9224;SDS011;4647;48.072;11.616;2022-08-21T12:49:12;2.87;;;2.13;;
9224;SDS011;4647;48.072;11.616;2022-08-21T12:51:49;3.37;;;2.20;;
9224;SDS011;4647;48.072;11.616;2022-08-21T12:54:22;3.23;;;2.20;;
9224;SDS011;4647;48.072;11.616;2022-08-21T12:57:00;4.73;;;2.27;;
9224;SDS011;4647;48.072;11.616;2022-08-21T12:59:29;2.40;;;2.20;;
9224;SDS011;4647;48.072;11.616;2022-08-21T13:01:57;2.47;;;2.20;;
9224;SDS011;4647;48.072;11.616;2022-08-21T13:04:30;2.20;;;2.00;;
9224;SDS011;4647;48.072;11.616;2022-08-21T13:07:04;2.30;;;2.10;;
9224;SDS011;4647;48.072;11.616;2022-08-21T13:09:36;4.70;;;2.67;;
9224;SDS011;4647;48.072;11.616;2022-08-21T13:12:09;2.50;;;2.30;;
9224;SDS011;4647;48.072;11.616;2022-08-21T13:14:38;5.37;;;2.10;;
9224;SDS011;4647;48.072;11.616;2022-08-21T13:17:07;2.20;;;1.97;;
9224;SDS011;4647;48.072;11.616;2022-08-21T13:19:37;3.20;;;2.00;;
9224;SDS011;4647;48.072;11.616;2022-08-21T13:22:05;4.30;;;2.10;;
9224;SDS011;4647;48.072;11.616;2022-08-21T13:24:39;6.13;;;2.50;;
9224;SDS011;4647;48.072;11.616;2022-08-21T13:27:16;3.60;;;2.63;;
9224;SDS011;4647;48.072;11.616;2022-08-21T13:29:48;2.60;;;2.40;;
9224;SDS011;4647;48.072;11.616;2022-08-21T13:32:26;2.87;;;2.47;;
9224;SDS011;4647;48.072;11.616;2022-08-21T13:34:57;2.67;;;2.47;;
9224;SDS011;4647;48.072;11.616;2022-08-21T13:37:24;2.30;;;2.10;;
9224;SDS011;4647;48.072;11.616;2022-08-21T13:39:53;22.00;;;3.13;;
9224;SDS011;4647;48.072;11.616;2022-08-21T13:42:22;5.50;;;2.80;;
9224;SDS011;4647;48.072;11.616;2022-08-21T13:44:50;3.83;;;2.80;;
9224;SDS011;4647;48.072;11.616;2022-08-21T13:47:19;2.90;;;2.60;;
9224;SDS011;4647;48.072;11.616;2022-08-21T13:49:47;5.30;;;2.43;;
9224;SDS011;4647;48.072;11.616;2022-08-21T13:52:17;4.03;;;2.47;;
9224;SDS011;4647;48.072;11.616;2022-08-21T13:54:51;5.93;;;2.93;;
9224;SDS011;4647;48.072;11.616;2022-08-21T13:57:26;5.10;;;2.60;;
9224;SDS011;4647;48.072;11.616;2022-08-21T14:00:09;4.10;;;2.70;;
9224;SDS011;4647;48.072;11.616;2022-08-21T14:02:38;6.07;;;3.10;;
9224;SDS011;4647;48.072;11.616;2022-08-21T14:05:06;2.60;;;2.40;;
9224;SDS011;4647;48.072;11.616;2022-08-21T14:07:42;4.20;;;2.53;;
9224;SDS011;4647;48.072;11.616;2022-08-21T14:10:12;4.80;;;2.67;;
9224;SDS011;4647;48.072;11.616;2022-08-21T14:12:43;3.93;;;2.60;;
9224;SDS011;4647;48.072;11.616;2022-08-21T14:15:14;4.67;;;2.30;;
9224;SDS011;4647;48.072;11.616;2022-08-21T14:17:44;4.53;;;2.23;;
9224;SDS011;4647;48.072;11.616;2022-08-21T14:20:12;3.50;;;2.57;;
9224;SDS011;4647;48.072;11.616;2022-08-21T14:22:53;3.20;;;2.30;;
9224;SDS011;4647;48.072;11.616;2022-08-21T14:25:27;3.13;;;2.33;;
9224;SDS011;4647;48.072;11.616;2022-08-21T14:27:58;2.40;;;2.20;;
9224;SDS011;4647;48.072;11.616;2022-08-21T14:30:30;2.50;;;2.30;;
9224;SDS011;4647;48.072;11.616;2022-08-21T14:32:59;5.57;;;2.63;;
9224;SDS011;4647;48.072;11.616;2022-08-21T14:35:26;2.73;;;2.30;;
9224;SDS011;4647;48.072;11.616;2022-08-21T14:37:54;4.20;;;3.00;;
9224;SDS011;4647;48.072;11.616;2022-08-21T14:40:22;2.57;;;2.37;;
9224;SDS011;4647;48.072;11.616;2022-08-21T14:42:50;4.03;;;2.40;;
9224;SDS011;4647;48.072;11.616;2022-08-21T14:45:19;3.90;;;2.43;;
9224;SDS011;4647;48.072;11.616;2022-08-21T14:47:52;3.07;;;2.60;;
9224;SDS011;4647;48.072;11.616;2022-08-21T14:50:19;3.40;;;2.63;;
9224;SDS011;4647;48.072;11.616;2022-08-21T14:52:46;3.80;;;2.30;;
9224;SDS011;4647;48.072;11.616;2022-08-21T14:55:14;3.30;;;2.50;;
9224;SDS011;4647;48.072;11.616;2022-08-21T14:57:42;2.87;;;2.20;;
9224;SDS011;4647;48.072;11.616;2022-08-21T15:00:12;2.43;;;2.13;;
9224;SDS011;4647;48.072;11.616;2022-08-21T15:02:43;3.10;;;2.30;;
9224;SDS011;4647;48.072;11.616;2022-08-21T15:05:10;4.37;;;2.50;;
9224;SDS011;4647;48.072;11.616;2022-08-21T15:07:37;3.27;;;2.37;;
9224;SDS011;4647;48.072;11.616;2022-08-21T15:10:05;4.67;;;2.23;;
9224;SDS011;4647;48.072;11.616;2022-08-21T15:12:33;2.67;;;2.40;;
9224;SDS011;4647;48.072;11.616;2022-08-21T15:15:00;7.10;;;2.40;;
9224;SDS011;4647;48.072;11.616;2022-08-21T15:17:27;5.00;;;2.80;;
9224;SDS011;4647;48.072;11.616;2022-08-21T15:19:55;8.00;;;2.53;;
9224;SDS011;4647;48.072;11.616;2022-08-21T15:22:22;4.43;;;2.47;;